Date,TemperatureHighF,TemperatureAvgF,TemperatureLowF,DewpointHighF,DewpointAvgF,DewpointLowF,HumidityHigh,HumidityAvg,HumidityLow,PressureMaxIn,PressureMinIn,WindSpeedMaxMPH,WindSpeedAvgMPH,GustSpeedMaxMPH,PrecipitationSumIn
2013-1-1,52.0,42.0,37.0,33.0,30.3,29.0,83,65,41,30.21,30.13,2,1,6,0.00
2013-1-2,35.0,35.0,35.0,30.0,30.0,30.0,82,82,82,30.18,30.18,2,2,4,0.00
2013-1-3,53.0,39.9,35.0,28.0,26.5,24.0,76,61,38,30.20,30.11,2,1,5,0.00
2013-1-4,47.0,39.6,34.0,37.0,31.2,27.0,87,72,61,30.20,30.17,3,1,4,0.00
2013-1-5,52.0,43.5,37.0,46.0,38.9,33.0,100,85,65,30.21,30.07,2,1,5,0.00
2013-1-6,43.0,41.3,38.0,42.0,40.6,38.0,99,97,93,30.13,30.06,2,2,8,0.00
2013-1-7,49.0,39.0,31.0,42.0,36.8,31.0,100,92,75,30.14,30.12,1,0,3,0.00
2013-1-8,65.0,45.6,38.0,39.0,38.5,38.0,100,83,39,30.15,30.12,4,1,6,0.00
2013-1-9,46.0,43.8,41.0,44.0,41.0,38.0,100,89,79,30.11,30.01,4,1,5,0.00
2013-1-10,40.0,39.5,39.0,38.0,36.0,34.0,98,88,79,30.05,30.05,4,4,13,0.00
2013-1-11,43.0,40.0,37.0,38.0,34.7,32.0,98,82,65,30.13,30.09,3,2,10,0.00
2013-1-12,37.0,32.4,28.0,37.0,29.8,25.0,100,91,74,30.17,30.08,2,1,5,0.00
2013-1-13,28.0,27.3,26.0,26.0,24.0,22.0,95,87,75,30.11,30.09,1,0,3,0.00
2013-1-14,42.0,27.2,23.0,20.0,17.2,13.0,82,69,30,30.30,30.13,1,1,5,0.00
2013-1-15,55.0,36.3,27.0,28.0,22.7,20.0,73,60,35,30.35,30.32,2,1,6,0.00
2013-1-16,53.0,38.8,33.0,32.0,27.4,25.0,77,66,33,30.33,30.22,3,2,7,0.00
2013-1-17,52.0,45.4,37.0,30.0,26.6,22.0,71,50,31,30.19,30.15,3,1,6,0.00
2013-1-18,65.0,54.2,46.0,34.0,28.0,23.0,58,38,24,30.18,30.11,3,2,6,0.00
2013-1-19,70.0,49.2,39.0,26.0,22.3,17.0,58,38,13,30.20,30.13,4,2,8,0.00
2013-1-20,70.0,48.6,39.0,26.0,22.5,17.0,59,41,13,30.18,30.09,3,2,7,0.00
2013-1-21,45.0,42.3,40.0,18.0,17.1,16.0,41,36,30,30.15,30.08,4,2,6,0.00
2013-1-22,58.0,46.1,39.0,24.0,22.9,22.0,55,42,24,30.10,30.06,1,1,4,0.00
2013-1-23,65.0,58.2,49.0,36.0,30.5,24.0,48,37,21,30.05,29.99,3,2,9,0.00
2013-1-24,54.0,50.5,48.0,53.0,45.7,39.0,96,83,70,30.11,30.02,2,1,5,0.00
2013-1-25,60.0,52.0,48.0,55.0,50.8,48.0,100,96,83,30.17,30.05,2,1,4,0.00
2013-1-26,52.0,51.0,49.0,52.0,51.0,49.0,100,100,99,30.05,30.00,2,1,6,0.00
2013-1-27,47.0,42.7,40.0,40.0,37.4,35.0,99,82,65,30.12,30.09,4,3,12,0.00
2013-1-28,48.0,41.5,39.0,42.0,37.7,37.0,98,87,68,30.26,30.12,6,2,17,0.00
2013-1-29,43.0,41.4,37.0,42.0,39.9,36.0,99,94,80,30.29,30.25,3,1,8,0.00
2013-1-30,38.0,36.9,36.0,36.0,35.7,35.0,98,95,93,30.25,30.23,1,1,4,0.00
2013-2-1,42.0,42.0,42.0,33.0,33.0,33.0,70,70,70,30.16,30.16,2,2,4,0.00
2013-2-3,44.0,41.0,38.0,42.0,39.5,37.0,95,94,94,30.13,30.13,3,2,4,0.00
2013-2-4,34.0,34.0,34.0,34.0,31.9,31.0,99,93,89,30.12,30.09,1,0,2,0.00
2013-2-5,41.0,41.0,41.0,36.0,35.4,35.0,82,82,81,30.06,30.05,0,0,2,0.00
2013-2-6,42.0,39.0,39.0,38.0,38.0,38.0,97,97,97,30.16,30.11,2,0,6,0.00
2013-2-7,48.0,44.6,42.0,41.0,40.0,39.0,91,84,76,30.16,30.08,2,2,6,0.00
2013-2-8,42.0,37.3,34.0,37.0,36.0,34.0,100,95,81,29.99,29.89,6,1,13,0.00
2013-2-9,49.0,40.7,33.0,37.0,33.3,30.0,91,78,53,30.03,29.95,2,1,6,0.00
2013-2-10,29.0,27.9,27.0,28.0,26.9,26.0,97,96,96,30.06,30.03,0,0,1,0.00
2013-2-11,57.0,45.2,31.0,29.0,25.7,23.0,92,56,26,30.13,30.02,2,2,10,0.00
2013-2-12,36.0,31.9,29.0,34.0,29.3,26.0,92,89,88,30.28,30.20,0,0,1,0.00
2013-2-13,61.0,46.3,31.0,42.0,34.7,30.0,97,68,42,30.29,30.19,3,2,8,0.00
2013-2-14,50.0,40.7,35.0,39.0,35.3,33.0,93,81,64,30.20,30.17,1,0,5,0.00
2013-2-15,74.0,59.9,45.0,34.0,31.3,30.0,55,37,20,30.24,30.19,4,2,9,0.00
2013-2-16,70.0,54.4,46.0,33.0,31.4,29.0,55,44,24,30.23,30.10,5,3,12,0.00
2013-2-17,61.0,47.5,38.0,33.0,30.9,29.0,71,56,34,30.05,29.96,2,1,7,0.00
2013-2-18,45.0,37.7,31.0,40.0,36.1,30.0,98,94,84,30.03,29.96,3,1,7,0.00
2013-2-19,46.0,41.0,36.0,39.0,37.3,35.0,100,88,68,29.96,29.72,4,2,14,0.00
2013-2-21,51.0,44.2,41.0,39.0,37.2,34.0,94,78,52,30.12,30.04,4,2,10,0.00
2013-2-22,58.0,41.2,29.0,31.0,30.3,29.0,99,71,35,30.19,30.13,6,2,11,0.00
2013-2-23,43.0,40.0,36.0,43.0,37.3,32.0,100,90,83,30.21,30.14,4,2,12,0.00
2013-2-24,40.0,34.8,30.0,33.0,29.5,27.0,98,84,61,30.20,30.12,1,0,3,0.00
2013-2-25,48.0,40.6,32.0,38.0,34.0,28.0,86,77,67,30.22,30.17,2,1,4,0.00
2013-2-26,64.0,47.1,34.0,34.0,25.6,18.0,92,54,17,30.17,30.10,5,2,12,0.00
2013-2-27,67.0,49.1,32.0,27.0,23.6,21.0,73,45,17,30.35,30.18,3,1,7,0.00
2013-2-28,66.0,53.9,36.0,47.0,38.7,25.0,66,57,45,30.37,30.35,4,2,9,0.00
2013-3-1,74.0,55.4,41.0,44.0,41.3,38.0,98,67,27,30.41,30.24,4,2,8,0.00
2013-3-2,70.0,59.5,48.0,42.0,39.1,37.0,66,49,34,30.26,30.13,3,2,7,0.00
2013-3-3,60.0,54.4,43.0,43.0,40.6,39.0,100,61,51,30.11,30.05,4,3,13,0.00
2013-3-4,51.0,43.6,40.0,44.0,41.5,40.0,100,93,78,30.09,30.05,3,2,5,0.00
2013-3-5,59.0,53.0,47.0,40.0,36.5,27.0,72,55,47,30.03,29.92,3,3,7,0.00
2013-3-6,50.0,46.2,43.0,42.0,37.5,35.0,94,72,56,30.03,29.93,5,2,10,0.00
2013-3-7,53.0,43.1,36.0,39.0,35.3,34.0,96,77,48,29.97,29.82,3,1,7,0.00
2013-3-8,47.0,41.9,39.0,41.0,38.8,37.0,99,90,78,30.01,29.79,3,2,9,0.00
2013-3-9,58.0,48.5,41.0,41.0,39.8,38.0,93,73,52,30.24,30.07,5,3,17,0.00
2013-3-10,64.0,64.0,64.0,32.0,32.0,32.0,30,30,30,30.30,30.30,3,3,7,0.00
2013-3-14,50.0,50.0,50.0,41.0,41.0,41.0,72,72,72,30.14,30.14,0,0,1,0.00
2013-3-15,50.0,50.0,50.0,41.0,41.0,41.0,72,72,72,30.14,30.14,0,0,1,0.00
2013-3-16,43.0,43.0,43.0,34.0,34.0,34.0,69,69,69,30.10,30.10,1,1,4,0.00
2013-3-17,43.0,43.0,43.0,34.0,34.0,34.0,69,69,69,30.10,30.10,1,1,4,0.00
2013-3-19,50.0,50.0,50.0,48.0,48.0,48.0,90,90,90,30.13,30.13,1,1,4,0.00
2013-3-20,54.0,52.0,50.0,48.0,47.9,47.0,91,85,80,30.13,30.11,1,1,4,0.00
2013-3-21,50.0,50.0,50.0,47.0,47.0,47.0,91,91,91,30.12,30.12,0,0,0,0.00
2013-3-22,56.0,48.0,40.0,37.0,34.5,32.0,86,63,40,30.06,30.02,2,1,7,0.00
2013-3-24,63.0,63.0,63.0,26.0,26.0,26.0,24,24,24,30.07,30.07,3,3,5,0.00
2013-3-25,38.0,38.0,38.0,35.0,35.0,35.0,89,89,89,29.97,29.97,0,0,1,0.00
2013-3-27,47.0,47.0,47.0,45.0,43.5,42.0,94,88,83,30.02,29.99,1,0,4,0.00
2013-3-28,63.0,63.0,63.0,52.0,52.0,52.0,68,68,68,30.04,30.04,2,2,6,0.00
2013-3-30,68.0,68.0,68.0,39.0,39.0,39.0,34,34,34,30.04,30.04,3,3,11,0.00
2013-3-31,62.0,62.0,62.0,41.0,41.0,41.0,45,45,45,30.00,30.00,2,2,5,0.00
2013-4-2,49.0,48.4,45.0,47.0,46.3,42.0,93,93,90,30.15,30.15,0,0,1,0.00
2013-4-3,67.0,50.7,43.0,51.0,45.0,42.0,99,82,55,30.15,30.00,4,1,6,0.00
2013-4-4,64.0,60.3,48.0,54.0,51.5,45.0,92,74,64,30.10,30.04,4,2,10,0.00
2013-4-5,62.0,52.9,48.0,49.0,46.9,45.0,100,82,56,30.17,30.13,7,3,12,0.00
2013-4-6,62.0,59.3,55.0,50.0,47.7,44.0,83,66,51,30.17,30.13,4,3,10,0.00
2013-4-7,65.0,60.7,50.0,50.0,48.2,43.0,77,65,54,30.07,29.95,5,4,13,0.00
2013-4-8,50.0,45.1,41.0,46.0,41.7,38.0,98,88,72,30.01,29.88,7,3,17,0.00
2013-4-9,63.0,49.4,35.0,40.0,35.8,33.0,96,67,33,30.03,29.98,6,2,14,0.00
2013-4-10,67.0,67.0,67.0,34.0,34.0,34.0,30,30,30,30.18,30.18,5,5,10,0.00
2013-5-16,65.0,47.8,51.0,48.0,19.8,-99.9,73,64,51,30.07,30.02,5,2,14,0.00
2013-5-17,68.0,56.5,45.0,41.0,39.5,38.0,85,60,34,30.04,30.03,5,2,12,0.00
2013-5-20,87.0,71.7,62.0,37.0,31.6,28.0,33,25,12,30.03,30.01,3,2,10,0.00
2013-5-21,66.0,57.6,47.0,44.0,34.7,23.0,45,42,35,30.01,29.95,5,2,13,0.00
2013-5-22,60.0,53.4,44.0,38.0,32.6,28.0,80,48,29,30.02,29.94,6,4,14,0.00
2013-5-23,58.0,47.1,40.0,39.0,35.1,31.0,84,67,36,30.03,29.98,5,3,10,0.00
2013-5-24,64.0,55.0,40.0,41.0,38.0,33.0,76,55,43,30.03,30.00,5,4,11,0.00
2013-5-25,37.0,37.0,37.0,33.0,33.0,33.0,84,84,84,30.01,30.01,1,1,2,0.00
2013-5-26,67.0,67.0,67.0,44.0,44.0,44.0,43,43,43,30.10,30.10,7,7,15,0.00
2013-5-27,54.0,51.2,49.0,49.0,49.0,49.0,98,90,81,30.13,30.08,2,1,5,0.00
2013-5-28,59.0,57.6,54.0,56.0,54.0,49.0,90,87,81,30.08,29.99,2,1,5,0.00
2013-5-30,68.0,68.0,68.0,32.0,32.0,32.0,26,26,26,29.98,29.98,2,2,7,0.00
2013-5-31,45.0,45.0,45.0,23.0,23.0,23.0,41,41,41,29.99,29.99,0,0,1,0.00
2013-6-1,89.0,75.8,53.0,40.0,38.9,37.0,54,31,18,29.99,29.94,3,2,10,0.00
2013-6-3,66.0,61.0,56.0,49.0,48.0,47.0,70,62,54,29.87,29.81,2,1,7,0.00
2013-6-4,68.0,57.6,53.0,52.0,48.5,46.0,83,72,55,29.97,29.88,3,1,10,0.00
2013-6-5,74.0,52.2,44.0,50.0,45.3,43.0,93,81,42,29.98,29.97,4,1,9,0.00
2013-6-6,72.0,55.9,47.0,50.0,46.2,44.0,90,73,47,29.97,29.92,3,1,6,0.00
2013-6-7,95.0,65.8,54.0,54.0,47.1,45.0,77,58,23,29.92,29.83,3,1,8,0.00
2013-6-8,65.0,62.8,59.0,52.0,44.2,41.0,78,52,48,29.85,29.80,0,0,1,0.00
2013-6-9,65.0,55.3,50.0,53.0,50.4,47.0,92,84,65,29.86,29.84,2,0,5,0.00
2013-6-11,78.0,62.5,50.0,54.0,50.3,47.0,93,69,44,29.96,29.94,3,2,8,0.00
2013-6-12,72.0,63.5,55.0,47.0,41.0,35.0,74,50,26,30.03,29.96,4,2,12,0.00
2013-6-14,82.0,75.7,44.0,38.0,36.7,30.0,58,27,21,29.98,29.92,5,4,13,0.00
2013-6-18,50.0,50.0,50.0,45.0,45.0,45.0,85,85,85,30.08,30.08,0,0,2,0.00
2013-6-19,68.0,67.6,67.0,44.0,43.4,43.0,43,42,41,30.04,30.03,5,4,13,0.00
2013-6-20,75.0,75.0,75.0,34.0,34.0,34.0,22,22,22,29.98,29.98,3,3,11,0.00
2013-6-23,61.0,54.0,49.0,51.0,47.1,44.0,86,77,68,29.97,29.93,2,1,5,0.00
2013-6-25,81.0,73.2,59.0,60.0,57.4,55.0,88,59,45,30.02,29.95,5,3,11,0.00
2013-6-26,65.0,65.0,65.0,57.0,57.0,57.0,75,75,75,30.07,30.07,0,0,1,0.00
2013-6-27,88.0,66.1,56.0,58.0,54.6,52.0,89,71,36,30.10,30.07,5,1,14,0.00
2013-6-28,96.0,81.1,65.0,50.0,48.9,48.0,58,36,20,30.08,30.02,4,2,12,0.00
2013-6-29,90.0,78.5,62.0,42.0,40.8,38.0,42,28,19,30.01,29.93,4,3,10,0.00
2013-6-30,90.0,76.5,63.0,43.0,41.0,39.0,41,30,20,29.92,29.89,5,2,12,0.00
2013-7-1,96.0,96.0,96.0,25.0,25.0,25.0,8,8,8,29.90,29.90,1,1,6,0.00
2013-7-3,94.0,92.6,89.0,56.0,52.6,44.0,28,26,21,29.93,29.90,3,2,9,0.00
2013-7-5,65.0,65.0,65.0,48.0,48.0,48.0,54,54,54,29.86,29.86,1,1,5,0.00
2013-7-6,67.0,56.4,50.0,51.0,48.5,47.0,90,77,55,29.85,29.78,3,1,6,0.00
2013-7-7,72.0,72.0,72.0,47.0,47.0,47.0,41,41,41,29.84,29.84,2,2,6,0.00
2013-7-9,91.0,90.6,90.0,39.0,37.4,35.0,16,15,14,30.02,30.02,3,3,12,0.00
2013-7-10,58.0,58.0,58.0,30.0,30.0,30.0,34,34,34,30.00,30.00,0,0,1,0.00
2013-7-11,79.0,79.0,79.0,51.0,51.0,51.0,37,37,37,29.95,29.95,3,3,9,0.00
2013-7-12,74.0,60.1,49.0,43.0,37.4,33.0,53,44,33,29.94,29.94,3,1,6,0.00
2013-7-13,83.0,70.8,61.0,37.0,35.7,34.0,40,30,17,29.99,29.98,5,3,10,0.00
2013-7-16,70.0,63.8,58.0,50.0,49.1,47.0,76,60,50,30.02,29.96,3,2,8,0.00
2013-7-17,81.0,81.0,81.0,50.0,50.0,50.0,34,34,34,30.09,30.09,3,3,9,0.00
2013-7-18,64.0,61.0,59.0,37.0,32.8,30.0,37,35,33,30.03,30.00,1,0,2,0.00
2013-7-19,59.0,59.0,59.0,30.0,30.0,30.0,33,33,33,30.03,30.03,0,0,1,0.00
2013-7-20,57.0,57.0,57.0,23.0,23.0,23.0,27,27,27,29.89,29.89,0,0,1,0.00
2013-7-21,57.0,57.0,57.0,42.0,42.0,42.0,58,58,58,29.81,29.81,2,2,4,0.00
2013-7-22,60.0,60.0,60.0,50.0,50.0,50.0,69,69,69,29.92,29.92,1,1,2,0.00
2013-7-24,86.0,86.0,86.0,45.0,45.0,45.0,24,24,24,30.02,30.02,2,2,6,0.00
2013-7-27,58.0,58.0,58.0,40.0,40.0,40.0,51,51,51,30.05,30.05,0,0,1,0.00
2013-7-29,48.0,48.0,48.0,48.0,48.0,48.0,100,100,100,29.92,29.92,0,0,1,0.00
2013-8-3,47.0,47.0,47.0,30.0,30.0,30.0,51,51,51,29.98,29.98,0,0,1,0.00
2013-8-5,82.0,82.0,82.0,45.0,45.0,45.0,27,27,27,30.02,30.02,3,3,8,0.00
2013-8-6,75.0,72.0,69.0,51.0,48.0,45.0,43,42,42,30.04,30.03,4,4,11,0.00
2013-8-8,76.0,53.7,45.0,53.0,46.8,40.0,93,79,45,30.06,29.99,4,2,11,0.00
2013-8-9,52.0,49.5,47.0,50.0,47.5,45.0,93,92,92,30.00,29.98,2,2,5,0.00
2013-8-11,76.0,76.0,76.0,44.0,44.0,44.0,33,33,33,30.02,30.02,4,4,8,0.00
2013-8-14,80.0,68.8,78.0,50.0,27.5,-99.9,38,29,20,30.01,29.99,3,3,8,0.00
2013-8-16,86.0,76.2,83.0,55.0,35.9,-99.9,34,31,28,30.02,30.02,3,2,8,0.00
2013-8-17,58.0,58.0,58.0,42.0,42.0,42.0,57,57,57,30.01,30.01,0,0,1,0.00
2013-8-18,58.0,58.0,58.0,51.0,51.0,51.0,76,76,76,29.96,29.96,0,0,1,0.00
2013-8-19,70.0,70.0,70.0,53.0,53.0,53.0,56,56,56,29.90,29.90,0,0,2,0.00
2013-8-20,85.0,71.2,63.0,53.0,51.1,50.0,64,53,34,29.92,29.88,3,1,8,0.00
2013-8-21,55.0,55.0,55.0,46.0,46.0,46.0,72,72,72,29.94,29.94,1,1,1,0.00
2013-8-22,72.0,72.0,72.0,51.0,51.0,51.0,48,48,48,29.93,29.93,4,4,11,0.00
2013-8-23,60.0,52.2,46.0,50.0,46.7,44.0,94,82,68,29.93,29.88,0,0,2,0.00
2013-8-24,79.0,63.4,49.0,54.0,41.6,-99.9,77,50,30,29.94,29.90,5,2,11,0.00
2013-8-25,54.0,54.0,54.0,50.0,50.0,50.0,86,86,86,29.94,29.94,0,0,1,0.00
2013-8-26,51.0,51.0,51.0,49.0,49.0,49.0,95,95,95,29.99,29.99,0,0,2,0.00
2013-8-27,74.0,64.2,52.0,48.0,47.6,47.0,81,58,40,29.94,29.90,2,1,6,0.00
2013-8-30,56.0,56.0,56.0,47.0,47.0,47.0,73,73,73,30.05,30.05,0,0,1,0.00
2013-9-1,60.0,60.0,60.0,50.0,50.0,50.0,69,69,69,29.96,29.96,0,0,1,0.00
2013-9-2,70.0,70.0,70.0,53.0,53.0,53.0,54,54,54,29.97,29.97,1,1,3,0.00
2013-9-3,78.0,75.5,73.0,46.0,46.0,46.0,38,35,32,30.01,30.01,5,4,12,0.00
2013-9-5,63.0,57.3,53.0,50.0,48.3,47.0,78,72,64,30.05,30.05,2,1,5,0.00
2013-9-6,88.0,87.0,86.0,49.0,48.5,48.0,27,26,26,29.91,29.90,6,6,14,0.00
2013-9-7,56.0,56.0,56.0,40.0,40.0,40.0,56,56,56,29.90,29.90,0,0,0,0.00
2013-9-8,82.0,66.0,58.0,41.0,40.7,40.0,52,42,22,29.92,29.85,3,2,5,0.00
2013-9-9,62.0,61.3,61.0,40.0,38.0,34.0,46,42,35,29.86,29.85,0,0,1,0.00
2013-9-13,60.0,60.0,60.0,35.0,35.0,35.0,39,39,39,29.85,29.85,1,1,3,0.00
2013-9-14,83.0,66.3,56.0,38.0,33.7,29.0,39,31,20,29.85,29.82,4,2,10,0.00
2013-9-16,79.0,79.0,79.0,52.0,52.0,52.0,39,39,39,29.88,29.88,2,2,10,0.00
2013-9-17,68.0,61.0,54.0,49.0,48.5,48.0,83,66,49,29.94,29.92,5,4,15,0.00
2013-9-19,89.0,89.0,89.0,34.0,34.0,34.0,14,14,14,29.85,29.85,2,2,6,0.00
2013-9-21,56.0,44.8,56.0,53.0,22.4,-99.9,90,72,90,29.88,29.88,2,2,8,0.00
2013-10-11,69.0,69.0,69.0,41.0,41.0,41.0,36,36,36,29.99,29.99,3,3,8,0.00
2013-10-12,61.0,47.6,42.0,40.0,25.7,-99.9,74,54,42,30.00,29.97,0,0,2,0.00
2013-10-17,71.0,71.0,71.0,28.0,28.0,28.0,20,20,20,30.09,30.09,0,0,2,0.00
2013-10-26,67.0,67.0,67.0,41.0,41.0,41.0,39,39,39,30.04,30.04,0,0,2,0.00
2013-11-3,42.0,39.6,36.0,41.0,37.2,31.0,96,92,84,29.94,29.92,2,1,3,0.00
2013-11-4,39.0,39.0,39.0,28.0,28.0,28.0,66,66,66,29.91,29.91,1,1,2,0.00
2013-11-6,72.0,72.0,72.0,18.0,18.0,18.0,13,13,13,30.21,30.21,3,3,6,0.00
2013-11-12,67.0,67.0,67.0,45.0,45.0,45.0,45,45,45,30.19,30.19,1,1,3,0.00
2013-11-15,60.0,53.3,44.0,44.0,40.8,37.0,100,67,45,29.86,29.74,6,3,11,0.00
2013-11-17,48.0,48.0,48.0,47.0,47.0,47.0,99,99,99,29.95,29.95,0,0,0,0.00
2013-11-18,41.0,41.0,41.0,38.0,38.0,38.0,89,89,89,30.07,30.07,0,0,2,0.00
2013-11-19,43.0,43.0,43.0,41.0,41.0,41.0,90,90,90,30.10,30.10,0,0,1,0.00
2013-11-20,51.0,50.6,50.0,51.0,50.6,50.0,100,99,98,29.99,29.90,2,1,5,0.00
2013-11-21,50.0,49.1,48.0,50.0,49.1,48.0,100,100,100,29.90,29.90,2,2,5,0.00
2013-11-22,42.0,42.0,42.0,33.0,33.0,33.0,70,70,70,29.93,29.93,0,0,3,0.00
2013-11-23,43.0,43.0,43.0,30.0,30.0,30.0,59,59,59,29.94,29.94,3,3,5,0.00
2013-11-27,51.0,48.2,46.0,36.0,35.6,35.0,67,61,53,29.95,29.87,3,2,5,0.00
2013-11-28,46.0,44.3,43.0,35.0,34.6,34.0,73,69,63,30.07,29.87,1,0,2,0.00
2013-11-29,56.0,52.8,40.0,35.0,34.2,34.0,83,52,44,30.15,30.07,3,2,4,0.00
2013-12-2,44.0,44.0,44.0,40.0,40.0,40.0,86,86,86,30.02,30.02,1,1,2,0.00
2013-12-4,29.0,26.8,25.0,28.0,24.2,19.0,98,90,72,29.98,29.88,1,0,5,0.00
2013-12-5,45.0,45.0,45.0,12.0,12.0,12.0,26,26,26,30.05,30.04,3,3,8,0.00
2013-12-6,23.0,23.0,23.0,22.0,22.0,22.0,96,96,96,30.12,30.12,0,0,2,0.00
2013-12-7,42.0,40.3,39.0,42.0,35.8,26.0,100,86,58,30.07,29.94,4,2,11,0.00
2013-12-8,29.0,29.0,29.0,26.0,26.0,26.0,91,91,91,30.17,30.17,0,0,1,0.00
2013-12-9,27.0,27.0,27.0,21.0,21.0,21.0,77,77,77,30.19,30.19,2,2,3,0.00
2013-12-11,41.0,40.0,39.0,19.0,18.5,18.0,43,42,40,30.15,30.12,3,3,5,0.00
2013-12-12,38.0,38.0,38.0,23.0,23.0,23.0,54,54,54,30.15,30.15,1,1,3,0.00
2013-12-13,33.0,32.3,32.0,25.0,25.0,25.0,75,74,73,30.19,30.19,1,1,1,0.00
2013-12-14,69.0,59.3,35.0,25.0,25.0,25.0,69,33,19,30.27,30.25,1,1,4,0.00
2013-12-15,44.0,44.0,44.0,22.0,22.0,22.0,41,41,41,30.32,30.32,3,3,5,0.00
2013-12-16,49.0,49.0,49.0,20.0,20.0,20.0,32,32,32,30.22,30.22,3,3,5,0.00
2013-12-17,63.0,57.5,52.0,25.0,25.0,25.0,34,29,24,30.18,30.07,3,2,6,0.00
2013-12-18,53.0,49.6,45.0,44.0,35.4,29.0,96,63,39,30.04,29.85,1,1,5,0.00
2013-12-19,45.0,45.0,45.0,44.0,44.0,44.0,96,94,93,29.85,29.84,1,1,5,0.00
2013-12-20,36.0,36.0,36.0,30.0,30.0,30.0,77,77,77,29.88,29.88,2,2,4,0.00
2013-12-21,64.0,64.0,64.0,39.0,39.0,39.0,39,39,39,29.95,29.95,2,2,7,0.00
2013-12-26,77.0,75.2,66.0,17.0,12.8,12.0,15,9,8,30.24,30.14,3,3,6,0.00
2013-12-27,54.0,52.0,48.0,16.0,15.7,15.0,26,23,22,30.22,30.19,3,2,6,0.00
2013-12-28,68.0,68.0,68.0,17.0,17.0,17.0,14,14,14,29.97,29.97,4,4,9,0.00
2013-12-29,72.0,72.0,72.0,17.0,17.0,17.0,12,12,12,30.08,30.08,3,3,6,0.00
2013-12-30,65.0,65.0,65.0,17.0,17.0,17.0,16,16,16,30.21,30.21,3,3,8,0.00
2014-1-1,72.0,69.5,67.0,15.0,12.8,10.0,13,11,9,30.15,30.09,2,1,6,0.00
2014-1-2,73.0,69.7,67.0,24.0,21.2,19.0,16,16,16,30.14,30.04,2,1,6,0.00